Colerain, North Carolina
Current Conditions -  °F | °C
As of 2:15 PM on Friday 21 Nov 2014 (Local Time) from KEDE Reporting Station
Clear Clear  
Wind Chill: 41°   Ceiling: Unl
Heat Index: 47°   Visibility: 10mi
Dew Point: 14°   Wind: 14mph
Humidity: 27%   Direction: 350°N
Pressure: 30.42"   Gusts: 21mph
Location:  36.2°N, 76.77°W
Report Text: KEDE 211915Z AUTO 35012G18KT 10SM CLR 08/M10 A3042 RMK AO2 T00811101
Loading
Personal Weather Stations






























Interactive Weather Map New forecast layout! Learn more

10-Day Weather Forecast

Advertisements
Track Severe Weather on mobile